Time;durP1;ratioP1;P1;durP2;ratioP2;P2;SDS_P1;SDS_P2;PMS_P1;PMS_P2;Temp;Humidity;BMP_temperature;BMP_pressure;BME280_temperature;BME280_humidity;BME280_pressure;Samples;Min_cycle;Max_cycle;Signal;HPM_P1;HPM_P2
2023/04/10 00:00:48;;;;;;;8.63;6.43;;;14.20;99.90;;;;;;5077654;28;20199;-86
2023/04/10 00:03:19;;;;;;;6.50;5.73;;;14.20;99.90;;;;;;5078862;28;20191;-86
2023/04/10 00:05:53;;;;;;;8.13;6.13;;;14.20;99.90;;;;;;5075805;28;20213;-87
2023/04/10 00:08:39;;;;;;;6.77;6.00;;;14.30;99.90;;;;;;5077120;28;20199;-87
2023/04/10 00:11:08;;;;;;;8.87;6.43;;;14.20;99.90;;;;;;5098241;28;20194;-86
2023/04/10 00:13:35;;;;;;;8.20;6.43;;;14.30;99.90;;;;;;5097984;28;20283;-86
2023/04/10 00:16:30;;;;;;;11.10;7.10;;;14.30;99.90;;;;;;5082978;28;20235;-86
2023/04/10 00:18:55;;;;;;;11.03;7.10;;;14.10;99.90;;;;;;5064043;28;20188;-86
2023/04/10 00:21:22;;;;;;;11.57;6.80;;;14.10;99.90;;;;;;5082882;28;20181;-85
2023/04/10 00:23:50;;;;;;;9.70;7.13;;;14.10;99.90;;;;;;5084688;28;20215;-86
2023/04/10 00:26:27;;;;;;;10.20;6.90;;;14.00;99.90;;;;;;5084595;28;20175;-86
2023/04/10 00:29:31;;;;;;;9.50;6.87;;;14.20;99.90;;;;;;5099511;28;20197;-87
2023/04/10 00:32:21;;;;;;;8.43;6.03;;;13.90;99.90;;;;;;5098457;28;20175;-86
2023/04/10 00:34:49;;;;;;;9.47;6.27;;;13.90;99.90;;;;;;5082091;28;20184;-87
2023/04/10 00:37:40;;;;;;;9.33;6.60;;;13.80;99.90;;;;;;5101384;28;20163;-86
2023/04/10 00:40:13;;;;;;;8.70;6.00;;;14.00;99.90;;;;;;5083076;28;20167;-84
2023/04/10 00:42:40;;;;;;;10.47;5.67;;;13.90;99.90;;;;;;5063476;28;20210;-85
2023/04/10 00:45:06;;;;;;;7.67;5.87;;;13.90;99.90;;;;;;5061855;28;20262;-86
2023/04/10 00:47:33;;;;;;;7.80;6.00;;;13.80;99.90;;;;;;5061694;28;20674;-86
2023/04/10 00:50:00;;;;;;;8.73;6.00;;;13.80;99.90;;;;;;5061977;28;20180;-87
2023/04/10 00:52:26;;;;;;;7.77;5.97;;;13.60;99.90;;;;;;5061111;28;20169;-87
2023/04/10 00:54:53;;;;;;;7.13;6.20;;;13.60;99.90;;;;;;5061562;28;20181;-87
2023/04/10 00:57:18;;;;;;;6.87;5.80;;;13.50;99.90;;;;;;5066109;28;20181;-87
2023/04/10 00:59:44;;;;;;;9.43;6.00;;;13.60;99.90;;;;;;5076748;28;20233;-86
2023/04/10 01:02:11;;;;;;;7.17;6.07;;;13.40;99.90;;;;;;5094065;28;20208;-86
2023/04/10 01:04:42;;;;;;;6.77;6.07;;;13.30;99.90;;;;;;5075916;28;20177;-85
2023/04/10 01:07:30;;;;;;;7.23;5.87;;;13.40;99.90;;;;;;5081287;28;20170;-87
2023/04/10 01:10:14;;;;;;;7.17;5.60;;;13.30;99.90;;;;;;5062664;28;20200;-87
2023/04/10 01:13:11;;;;;;;6.37;5.60;;;13.10;99.90;;;;;;5063632;28;20630;-85
2023/04/10 01:15:51;;;;;;;7.83;6.23;;;13.20;99.90;;;;;;5029930;28;20195;-88
2023/04/10 01:18:52;;;;;;;7.73;5.80;;;13.00;99.90;;;;;;5079473;28;20175;-87
2023/04/10 01:21:21;;;;;;;7.00;5.70;;;13.00;99.90;;;;;;5061735;28;20184;-87
2023/04/10 01:24:19;;;;;;;7.60;5.37;;;13.10;99.90;;;;;;5060023;28;20222;-88
2023/04/10 01:27:08;;;;;;;6.40;5.67;;;13.10;99.90;;;;;;5050548;28;20176;-88
2023/04/10 01:29:38;;;;;;;6.80;5.57;;;13.10;99.90;;;;;;5060833;28;20207;-89
2023/04/10 01:32:10;;;;;;;5.60;4.90;;;13.20;99.90;;;;;;5080191;28;20186;-90
2023/04/10 01:34:42;;;;;;;6.67;5.27;;;13.00;99.90;;;;;;5063362;28;20637;-89
2023/04/10 01:37:14;;;;;;;6.50;5.67;;;13.10;99.90;;;;;;5084375;28;20249;-89
2023/04/10 01:39:42;;;;;;;6.63;5.47;;;13.00;99.90;;;;;;5077700;28;20185;-89
2023/04/10 01:42:12;;;;;;;6.73;5.03;;;12.90;99.90;;;;;;5061968;28;20568;-89
2023/04/10 01:44:42;;;;;;;5.53;4.77;;;13.00;99.90;;;;;;5060647;28;20171;-88
2023/04/10 01:47:08;;;;;;;7.70;5.30;;;12.90;99.90;;;;;;5061220;28;20171;-88
2023/04/10 01:49:41;;;;;;;5.27;4.67;;;12.90;99.90;;;;;;5043572;28;20636;-88
2023/04/10 01:52:07;;;;;;;5.70;4.93;;;13.00;99.90;;;;;;5061672;28;20182;-90
2023/04/10 01:54:34;;;;;;;6.07;5.07;;;12.90;99.90;;;;;;5079449;28;20270;-87
2023/04/10 01:57:02;;;;;;;5.50;4.97;;;12.90;99.90;;;;;;5074087;28;20291;-88
2023/04/10 01:59:30;;;;;;;6.90;5.10;;;13.00;99.90;;;;;;5062104;28;20165;-87
2023/04/10 02:01:59;;;;;;;7.27;5.23;;;13.10;99.90;;;;;;5061147;28;20235;-87
2023/04/10 02:04:25;;;;;;;5.77;4.70;;;12.90;99.90;;;;;;5059120;28;20178;-90
2023/04/10 02:07:06;;;;;;;5.63;4.70;;;12.70;99.90;;;;;;5060465;28;20165;-89
2023/04/10 02:09:55;;;;;;;5.63;4.60;;;12.70;99.90;;;;;;5067439;28;20187;-87
2023/04/10 02:12:27;;;;;;;6.07;4.93;;;12.60;99.90;;;;;;5077855;28;20181;-88
2023/04/10 02:14:56;;;;;;;5.10;4.43;;;12.70;99.90;;;;;;5086966;28;20644;-87
2023/04/10 02:17:28;;;;;;;5.43;4.70;;;12.70;99.90;;;;;;5060715;28;20200;-89
2023/04/10 02:19:55;;;;;;;5.93;4.90;;;12.60;99.90;;;;;;5060638;28;20194;-89
2023/04/10 02:22:24;;;;;;;7.00;5.40;;;12.60;99.90;;;;;;5060324;28;20305;-90
2023/04/10 02:24:50;;;;;;;6.47;5.03;;;12.70;99.90;;;;;;5081340;28;20281;-89
2023/04/10 02:27:26;;;;;;;8.80;5.47;;;12.80;99.90;;;;;;5061155;28;20695;-89
2023/04/10 02:29:52;;;;;;;6.63;5.07;;;12.80;99.90;;;;;;5068219;28;20162;-89
2023/04/10 02:32:19;;;;;;;7.47;5.70;;;12.80;99.90;;;;;;5076268;28;20205;-88
2023/04/10 02:34:46;;;;;;;6.27;5.13;;;12.80;99.90;;;;;;5080572;28;20164;-88
2023/04/10 02:37:12;;;;;;;6.20;5.20;;;12.70;99.90;;;;;;5082078;28;20624;-88
2023/04/10 02:39:40;;;;;;;7.43;5.43;;;12.40;99.90;;;;;;5081324;28;20172;-88
2023/04/10 02:42:07;;;;;;;5.73;5.20;;;12.20;99.90;;;;;;5076118;28;20204;-90
2023/04/10 02:44:32;;;;;;;6.33;5.20;;;12.00;99.90;;;;;;5069498;28;20166;-88
2023/04/10 02:46:58;;;;;;;6.10;4.93;;;12.00;99.90;;;;;;5078017;28;20174;-87
2023/04/10 02:49:24;;;;;;;6.90;5.57;;;12.10;99.90;;;;;;5079118;28;20207;-88
2023/04/10 02:52:01;;;;;;;5.63;5.03;;;12.00;99.90;;;;;;5063586;28;20176;-88
2023/04/10 02:54:28;;;;;;;6.80;5.30;;;11.90;99.90;;;;;;5059694;28;20617;-87
2023/04/10 02:56:56;;;;;;;5.93;5.27;;;12.10;99.90;;;;;;5059112;28;20187;-88
2023/04/10 02:59:22;;;;;;;6.67;5.33;;;12.00;99.90;;;;;;5058941;28;20620;-87
2023/04/10 03:01:49;;;;;;;6.73;4.83;;;12.10;99.90;;;;;;5057907;28;20295;-87
2023/04/10 03:04:17;;;;;;;6.57;5.40;;;12.00;99.90;;;;;;5058716;28;20180;-91
2023/04/10 03:06:43;;;;;;;6.07;5.30;;;12.10;99.90;;;;;;5058054;28;20184;-88
2023/04/10 03:09:09;;;;;;;7.97;5.23;;;12.10;99.90;;;;;;5071218;28;20170;-87
2023/04/10 03:11:38;;;;;;;5.90;4.73;;;12.50;99.90;;;;;;5062075;28;20218;-88
2023/04/10 03:14:03;;;;;;;7.70;4.97;;;12.40;99.90;;;;;;5057942;28;20172;-89
2023/04/10 03:16:29;;;;;;;6.93;5.50;;;12.30;99.90;;;;;;5058596;28;20176;-88
2023/04/10 03:18:55;;;;;;;7.20;5.40;;;12.30;99.90;;;;;;5058175;28;20177;-87
2023/04/10 03:21:22;;;;;;;6.33;5.33;;;12.30;99.90;;;;;;5057775;28;20187;-89
2023/04/10 03:23:48;;;;;;;6.40;5.37;;;12.20;99.90;;;;;;5057887;28;20252;-88
2023/04/10 03:26:14;;;;;;;6.17;5.27;;;12.20;99.90;;;;;;5064527;28;20173;-87
2023/04/10 03:28:40;;;;;;;6.80;5.50;;;12.20;99.90;;;;;;5075307;28;20256;-88
2023/04/10 03:31:06;;;;;;;7.43;5.70;;;12.10;99.90;;;;;;5069290;28;20192;-88
2023/04/10 03:33:31;;;;;;;7.70;5.87;;;12.10;99.90;;;;;;5059500;28;20173;-88
2023/04/10 03:35:58;;;;;;;6.63;5.77;;;11.90;99.90;;;;;;5059159;28;20608;-89
2023/04/10 03:38:24;;;;;;;7.00;5.13;;;11.90;99.90;;;;;;5058254;28;20176;-88
2023/04/10 03:40:50;;;;;;;6.43;5.53;;;11.80;99.90;;;;;;5058399;28;20700;-88
2023/04/10 03:43:16;;;;;;;6.67;5.30;;;11.70;99.90;;;;;;5058532;28;20208;-89
2023/04/10 03:45:41;;;;;;;7.07;5.93;;;11.70;99.90;;;;;;5058265;28;20537;-88
2023/04/10 03:48:07;;;;;;;7.83;6.03;;;11.70;99.90;;;;;;5075864;28;20203;-88
2023/04/10 03:50:33;;;;;;;6.07;5.07;;;11.90;99.90;;;;;;5057324;28;20227;-88
2023/04/10 03:53:00;;;;;;;7.17;5.40;;;11.70;99.90;;;;;;5075765;28;20174;-87
2023/04/10 03:55:26;;;;;;;7.40;5.60;;;11.70;99.90;;;;;;5059126;28;20177;-89
2023/04/10 03:57:57;;;;;;;6.67;5.60;;;11.80;99.90;;;;;;5076003;28;20185;-88
2023/04/10 04:00:24;;;;;;;6.77;5.27;;;11.70;99.90;;;;;;5075937;28;20168;-88
2023/04/10 04:02:51;;;;;;;6.70;5.30;;;11.60;99.90;;;;;;5078893;28;20213;-88
2023/04/10 04:05:17;;;;;;;6.37;5.00;;;11.60;99.90;;;;;;5063637;28;20184;-88
2023/04/10 04:07:42;;;;;;;5.97;5.30;;;11.60;99.90;;;;;;5062478;28;20187;-88
2023/04/10 04:10:09;;;;;;;8.00;5.57;;;11.80;99.90;;;;;;5060883;28;20184;-88
2023/04/10 04:12:35;;;;;;;7.37;5.00;;;11.60;99.90;;;;;;5044223;28;20238;-88
2023/04/10 04:15:05;;;;;;;5.90;5.00;;;11.80;99.90;;;;;;5069471;28;20184;-88
2023/04/10 04:17:31;;;;;;;7.27;5.07;;;11.90;99.90;;;;;;5081361;28;20276;-87
2023/04/10 04:19:57;;;;;;;8.30;5.63;;;11.80;99.90;;;;;;5075714;28;20184;-86
2023/04/10 04:22:22;;;;;;;6.23;5.37;;;11.80;99.90;;;;;;5072777;28;20275;-88
2023/04/10 04:24:51;;;;;;;6.97;5.43;;;12.00;99.90;;;;;;5075407;28;20200;-87
2023/04/10 04:27:18;;;;;;;6.87;5.10;;;11.90;99.90;;;;;;5059852;28;20200;-89
2023/04/10 04:29:44;;;;;;;6.37;4.77;;;11.80;99.90;;;;;;5058311;28;20263;-87
2023/04/10 04:32:10;;;;;;;6.60;4.67;;;11.90;99.90;;;;;;5058717;28;20678;-87
2023/04/10 04:34:36;;;;;;;6.40;5.43;;;11.90;99.90;;;;;;5058352;28;20620;-90
2023/04/10 04:37:01;;;;;;;7.10;4.93;;;11.90;99.90;;;;;;5074923;28;20179;-89
2023/04/10 04:39:28;;;;;;;5.87;4.97;;;11.90;99.90;;;;;;5074944;28;20178;-87
2023/04/10 04:41:57;;;;;;;7.43;5.47;;;11.80;99.90;;;;;;5080018;28;20219;-89
2023/04/10 04:44:25;;;;;;;7.27;5.60;;;11.90;99.90;;;;;;5065285;28;20203;-89
2023/04/10 04:46:53;;;;;;;7.43;5.37;;;11.90;99.90;;;;;;5058042;28;20180;-89
2023/04/10 04:49:19;;;;;;;6.73;5.27;;;11.90;99.90;;;;;;5058287;28;20213;-89
2023/04/10 04:51:46;;;;;;;6.97;5.20;;;11.90;99.90;;;;;;5058053;28;20248;-88
2023/04/10 04:54:11;;;;;;;6.63;5.10;;;11.60;99.90;;;;;;5076933;28;20604;-89
2023/04/10 04:56:37;;;;;;;7.50;5.60;;;11.60;99.90;;;;;;5081987;28;20182;-89
2023/04/10 04:59:03;;;;;;;7.70;5.07;;;11.60;99.90;;;;;;5072372;28;20176;-90
2023/04/10 05:01:33;;;;;;;7.60;5.73;;;11.70;99.90;;;;;;5064630;28;20195;-89
2023/04/10 05:03:59;;;;;;;6.57;5.30;;;11.50;99.90;;;;;;5063266;28;20223;-90
2023/04/10 05:06:36;;;;;;;7.30;5.40;;;11.40;99.90;;;;;;5062287;28;20201;-90
2023/04/10 05:09:01;;;;;;;6.83;5.57;;;11.40;99.90;;;;;;5063450;28;20655;-89
2023/04/10 05:11:27;;;;;;;7.30;5.37;;;11.40;99.90;;;;;;5064498;28;20168;-89
2023/04/10 05:13:53;;;;;;;7.10;4.60;;;11.70;99.90;;;;;;5063096;28;20173;-87
2023/04/10 05:16:18;;;;;;;6.67;5.10;;;11.80;99.90;;;;;;5061726;28;20184;-89
2023/04/10 05:18:45;;;;;;;6.03;5.07;;;11.60;99.90;;;;;;5069675;28;20176;-88
2023/04/10 05:21:11;;;;;;;5.47;4.80;;;11.60;99.90;;;;;;5077144;28;20622;-88
2023/04/10 05:23:39;;;;;;;6.10;4.73;;;11.80;99.90;;;;;;5065521;28;20215;-88
2023/04/10 05:26:06;;;;;;;6.23;4.87;;;11.60;99.90;;;;;;5047191;28;20176;-88
2023/04/10 05:28:31;;;;;;;6.77;5.27;;;11.70;99.90;;;;;;5082587;28;20176;-88
2023/04/10 05:30:57;;;;;;;5.97;4.90;;;11.80;99.90;;;;;;5073228;28;20187;-89
2023/04/10 05:33:24;;;;;;;6.33;5.07;;;11.70;99.90;;;;;;5075505;28;20177;-88
2023/04/10 05:35:52;;;;;;;6.33;4.83;;;11.80;99.90;;;;;;5091464;28;20636;-88
2023/04/10 05:38:17;;;;;;;7.00;5.03;;;11.90;99.90;;;;;;5072226;28;20189;-89
2023/04/10 05:40:53;;;;;;;7.10;5.53;;;12.00;99.90;;;;;;5092445;28;20172;-89
2023/04/10 05:43:20;;;;;;;6.70;5.43;;;12.00;99.90;;;;;;5086720;28;20227;-88
2023/04/10 05:45:46;;;;;;;8.00;4.80;;;12.00;99.90;;;;;;5067383;28;20186;-89
2023/04/10 05:48:12;;;;;;;6.37;5.00;;;11.90;99.90;;;;;;5052796;28;20270;-89
2023/04/10 05:50:37;;;;;;;6.90;5.23;;;12.00;99.90;;;;;;5051972;28;20204;-89
2023/04/10 05:53:04;;;;;;;7.80;5.20;;;11.70;99.90;;;;;;5069592;28;20180;-89
2023/04/10 05:55:30;;;;;;;6.33;5.13;;;11.70;99.90;;;;;;5063643;28;20182;-88
2023/04/10 05:57:57;;;;;;;5.80;4.93;;;11.80;99.90;;;;;;5068845;28;20590;-88
2023/04/10 06:00:23;;;;;;;5.93;4.87;;;11.80;99.90;;;;;;5065570;28;20180;-89
2023/04/10 06:02:50;;;;;;;6.37;5.17;;;11.70;99.90;;;;;;5067369;28;20200;-88
2023/04/10 06:05:17;;;;;;;5.83;5.10;;;11.80;99.90;;;;;;5069129;28;20184;-90
2023/04/10 06:07:43;;;;;;;7.07;5.60;;;11.70;99.90;;;;;;5070923;28;20180;-88
2023/04/10 06:10:11;;;;;;;7.20;4.97;;;11.80;99.90;;;;;;5067206;28;20599;-88
2023/04/10 06:12:37;;;;;;;5.67;4.43;;;11.70;99.90;;;;;;5061494;28;20183;-90
2023/04/10 06:15:03;;;;;;;6.17;5.10;;;11.70;99.90;;;;;;5059450;28;20239;-90
2023/04/10 06:17:29;;;;;;;7.03;5.10;;;11.70;99.90;;;;;;5060583;28;20648;-91
2023/04/10 06:19:55;;;;;;;6.97;5.07;;;11.80;99.90;;;;;;5072491;28;20207;-89
2023/04/10 06:22:22;;;;;;;7.90;5.10;;;11.70;99.90;;;;;;5066395;28;20211;-88
2023/04/10 06:24:48;;;;;;;8.37;5.07;;;11.80;99.90;;;;;;5062785;28;20568;-90
2023/04/10 06:27:17;;;;;;;5.50;4.47;;;11.80;99.90;;;;;;5064958;28;20683;-89
2023/04/10 06:29:44;;;;;;;6.77;5.17;;;11.80;99.90;;;;;;5063863;28;20199;-90
2023/04/10 06:32:10;;;;;;;5.73;4.73;;;11.90;99.90;;;;;;5062551;28;20184;-89
2023/04/10 06:34:36;;;;;;;7.80;4.87;;;11.90;99.90;;;;;;5061394;28;20606;-89
2023/04/10 06:37:02;;;;;;;7.33;5.17;;;11.80;99.90;;;;;;5080231;28;20172;-91
2023/04/10 06:39:29;;;;;;;6.97;5.10;;;11.80;99.90;;;;;;5064424;28;20156;-91
2023/04/10 06:41:55;;;;;;;6.17;4.67;;;11.80;99.90;;;;;;5062954;28;20203;-91
2023/04/10 06:44:22;;;;;;;6.07;4.70;;;12.00;99.90;;;;;;5069177;28;20176;-89
2023/04/10 06:46:47;;;;;;;6.53;5.30;;;11.80;99.90;;;;;;5075522;28;20172;-89
2023/04/10 06:49:13;;;;;;;5.43;4.90;;;11.80;99.90;;;;;;5078094;28;20236;-89
2023/04/10 06:51:47;;;;;;;5.83;5.03;;;12.00;99.90;;;;;;5080546;28;20202;-89
2023/04/10 06:54:13;;;;;;;6.27;5.10;;;11.80;99.90;;;;;;5075947;28;20176;-88
2023/04/10 06:56:44;;;;;;;7.13;4.73;;;11.90;99.90;;;;;;5064771;28;20174;-90
2023/04/10 06:59:15;;;;;;;6.47;4.83;;;12.00;99.90;;;;;;5062949;28;20192;-91
2023/04/10 07:01:44;;;;;;;6.67;5.03;;;11.90;99.90;;;;;;5054131;28;20199;-90
2023/04/10 07:04:10;;;;;;;6.17;5.10;;;11.80;99.90;;;;;;5072261;28;20257;-90
2023/04/10 07:06:44;;;;;;;5.73;4.27;;;11.90;99.90;;;;;;5088992;28;20221;-89
2023/04/10 07:09:13;;;;;;;5.67;5.07;;;11.90;99.90;;;;;;5067892;28;20188;-91
2023/04/10 07:11:51;;;;;;;6.17;5.03;;;12.00;99.90;;;;;;5079326;28;20167;-90
2023/04/10 07:14:17;;;;;;;7.97;4.80;;;12.10;99.90;;;;;;5068746;28;20259;-89
2023/04/10 07:16:45;;;;;;;6.10;4.70;;;12.30;99.90;;;;;;5065199;28;20157;-90
2023/04/10 07:19:11;;;;;;;5.87;5.07;;;12.20;99.90;;;;;;5079295;28;20621;-91
2023/04/10 07:21:37;;;;;;;7.67;4.90;;;12.40;99.90;;;;;;5061326;28;20192;-89
2023/04/10 07:24:03;;;;;;;7.77;5.37;;;12.30;99.90;;;;;;5060276;28;20220;-92
2023/04/10 07:26:28;;;;;;;6.33;5.00;;;12.30;99.90;;;;;;5058514;28;20164;-92
2023/04/10 07:28:55;;;;;;;6.60;5.50;;;12.40;99.90;;;;;;5058828;28;20238;-90
2023/04/10 07:31:21;;;;;;;8.03;5.80;;;12.30;99.90;;;;;;5058872;28;20169;-89
2023/04/10 07:33:47;;;;;;;7.67;5.20;;;12.50;99.90;;;;;;5058548;28;20181;-92
2023/04/10 07:36:12;;;;;;;7.07;5.00;;;12.60;99.90;;;;;;5057058;28;20173;-90
2023/04/10 07:38:38;;;;;;;7.37;4.77;;;12.50;99.90;;;;;;5057421;28;20270;-90
2023/04/10 07:41:04;;;;;;;5.33;4.77;;;12.60;99.90;;;;;;5059295;28;20168;-89
2023/04/10 07:43:30;;;;;;;6.30;5.47;;;12.60;99.90;;;;;;5061746;28;20667;-89
2023/04/10 07:45:56;;;;;;;6.00;4.87;;;12.60;99.90;;;;;;5060316;28;20177;-90
2023/04/10 07:48:22;;;;;;;5.87;5.27;;;12.60;99.90;;;;;;5064175;28;20180;-88
2023/04/10 07:50:48;;;;;;;5.93;4.87;;;12.50;99.90;;;;;;5062188;28;20184;-91
2023/04/10 07:53:13;;;;;;;6.87;5.50;;;12.50;99.90;;;;;;5061437;28;20591;-90
2023/04/10 07:55:44;;;;;;;5.57;4.80;;;12.70;99.90;;;;;;5064130;28;20494;-90
2023/04/10 07:58:10;;;;;;;6.70;5.37;;;12.60;99.90;;;;;;5075374;28;20223;-90
2023/04/10 08:00:36;;;;;;;7.03;5.30;;;12.70;99.90;;;;;;5059306;28;20689;-91
2023/04/10 08:03:03;;;;;;;5.87;5.00;;;12.80;99.90;;;;;;5080098;28;20675;-90
2023/04/10 08:05:30;;;;;;;6.27;5.03;;;12.90;99.90;;;;;;5060650;28;20167;-88
2023/04/10 08:07:55;;;;;;;7.47;5.53;;;12.90;99.90;;;;;;5082315;28;20164;-91
2023/04/10 08:10:22;;;;;;;6.37;5.10;;;13.00;99.90;;;;;;5067705;28;20182;-90
2023/04/10 08:12:50;;;;;;;6.80;5.63;;;13.10;99.90;;;;;;5059801;28;20202;-90
2023/04/10 08:15:17;;;;;;;7.17;5.73;;;13.10;99.90;;;;;;5062633;28;20191;-91
2023/04/10 08:17:42;;;;;;;6.87;5.23;;;13.20;99.90;;;;;;5066070;28;20187;-90
2023/04/10 08:20:09;;;;;;;6.73;5.13;;;13.20;99.90;;;;;;5092404;28;20148;-90
2023/04/10 08:22:35;;;;;;;7.70;5.27;;;13.20;99.90;;;;;;5074968;28;20200;-89
2023/04/10 08:25:01;;;;;;;7.13;5.27;;;13.20;99.90;;;;;;5075912;28;20242;-90
2023/04/10 08:27:27;;;;;;;7.53;5.17;;;13.40;99.90;;;;;;5069679;28;20176;-90
2023/04/10 08:29:52;;;;;;;7.40;5.90;;;13.30;99.90;;;;;;5068722;28;20229;-89
2023/04/10 08:32:19;;;;;;;7.60;5.50;;;13.50;99.90;;;;;;5067398;28;20173;-89
2023/04/10 08:34:46;;;;;;;7.03;5.70;;;13.40;99.90;;;;;;5067611;28;20181;-89
2023/04/10 08:37:14;;;;;;;8.90;5.60;;;13.40;99.90;;;;;;5064739;28;20174;-90
2023/04/10 08:39:40;;;;;;;5.87;4.97;;;13.50;99.90;;;;;;5065028;28;20165;-89
2023/04/10 08:42:06;;;;;;;6.77;5.53;;;13.60;99.90;;;;;;5066871;28;20276;-89
2023/04/10 08:44:32;;;;;;;7.83;5.43;;;13.70;99.90;;;;;;5064939;28;20221;-90
2023/04/10 08:47:00;;;;;;;11.53;6.33;;;13.80;99.90;;;;;;5065270;28;20292;-89
2023/04/10 08:49:46;;;;;;;7.40;5.77;;;13.90;99.90;;;;;;5065296;28;20170;-89
2023/04/10 08:52:22;;;;;;;8.13;5.50;;;13.80;99.90;;;;;;5064565;28;20519;-90
2023/04/10 08:54:53;;;;;;;8.37;6.07;;;13.80;99.90;;;;;;5066214;28;20166;-90
2023/04/10 08:57:19;;;;;;;7.27;5.47;;;13.90;99.90;;;;;;5065905;28;20199;-89
2023/04/10 08:59:50;;;;;;;7.13;5.63;;;13.90;99.90;;;;;;5069039;28;20176;-89
2023/04/10 09:02:16;;;;;;;7.47;5.70;;;13.90;99.90;;;;;;5081979;28;20231;-88
2023/04/10 09:04:54;;;;;;;6.30;4.93;;;14.00;99.90;;;;;;5070007;28;20188;-90
2023/04/10 09:07:20;;;;;;;7.53;5.80;;;14.00;99.90;;;;;;5062988;28;20168;-89
2023/04/10 09:09:45;;;;;;;9.67;6.57;;;14.20;99.90;;;;;;5063548;28;20268;-89
2023/04/10 09:12:13;;;;;;;7.63;5.50;;;14.00;99.90;;;;;;5078504;28;20183;-90
2023/04/10 09:14:40;;;;;;;7.53;6.13;;;14.20;99.90;;;;;;5079710;28;20192;-89
2023/04/10 09:17:20;;;;;;;8.00;5.40;;;14.30;99.90;;;;;;5081436;28;20177;-88
2023/04/10 09:19:56;;;;;;;8.37;5.70;;;14.30;99.90;;;;;;5071188;28;20175;-90
2023/04/10 09:22:39;;;;;;;10.27;5.50;;;14.50;99.90;;;;;;5069457;28;20204;-90
2023/04/10 09:25:31;;;;;;;7.90;5.63;;;14.50;99.90;;;;;;5073538;28;20687;-89
2023/04/10 09:28:09;;;;;;;8.57;5.30;;;14.60;99.90;;;;;;5084496;28;20168;-90
2023/04/10 09:30:40;;;;;;;6.77;5.30;;;14.90;99.90;;;;;;5079370;28;20172;-90
2023/04/10 09:33:27;;;;;;;7.07;5.57;;;14.70;99.90;;;;;;5079307;28;20218;-88
2023/04/10 09:36:02;;;;;;;7.73;5.00;;;14.80;99.90;;;;;;5070881;28;20182;-90
2023/04/10 09:38:32;;;;;;;6.67;5.00;;;14.80;99.90;;;;;;5064769;28;20195;-89
2023/04/10 09:41:07;;;;;;;5.43;4.90;;;14.80;99.90;;;;;;5064229;28;20184;-90
2023/04/10 09:43:35;;;;;;;5.23;4.63;;;14.90;99.90;;;;;;5081307;28;20203;-90
2023/04/10 09:46:01;;;;;;;6.37;4.97;;;15.00;99.90;;;;;;5066052;28;20172;-90
2023/04/10 09:48:27;;;;;;;8.07;4.60;;;15.00;99.90;;;;;;5073215;28;20220;-89
2023/04/10 09:50:53;;;;;;;6.77;4.43;;;15.10;99.90;;;;;;5064120;28;20247;-87
2023/04/10 09:53:21;;;;;;;5.17;3.90;;;15.10;99.90;;;;;;5064911;28;20176;-89
2023/04/10 09:55:48;;;;;;;5.60;4.40;;;15.20;99.90;;;;;;5064334;28;20176;-89
2023/04/10 09:58:16;;;;;;;6.77;5.07;;;15.40;99.90;;;;;;5062745;28;20636;-86
2023/04/10 10:00:44;;;;;;;5.30;4.27;;;15.50;99.90;;;;;;5063540;28;20191;-90
2023/04/10 10:03:12;;;;;;;7.30;4.20;;;15.80;99.90;;;;;;5062920;28;20219;-90
2023/04/10 10:05:40;;;;;;;4.57;3.83;;;15.90;99.90;;;;;;5045639;28;20177;-90
2023/04/10 10:08:08;;;;;;;4.63;3.77;;;15.90;99.90;;;;;;5081726;28;20196;-90
2023/04/10 10:10:40;;;;;;;4.83;3.83;;;16.00;99.90;;;;;;5063366;28;20240;-88
2023/04/10 10:13:07;;;;;;;4.93;3.70;;;16.00;95.20;;;;;;5068744;28;20177;-88
2023/04/10 10:15:41;;;;;;;5.93;3.97;;;16.20;66.80;;;;;;5063012;28;20199;-91
2023/04/10 10:18:32;;;;;;;4.57;4.07;;;16.20;36.40;;;;;;5062881;28;20199;-90
2023/04/10 10:21:00;;;;;;;7.50;3.80;;;16.40;14.10;;;;;;5064625;28;20217;-88
2023/04/10 10:23:26;;;;;;;5.37;3.60;;;16.50;1.00;;;;;;5063632;28;20302;-89
2023/04/10 10:25:54;;;;;;;5.80;3.30;;;16.50;1.00;;;;;;5068270;28;20172;-90
2023/04/10 10:28:24;;;;;;;4.90;4.03;;;16.70;1.00;;;;;;5052485;28;20181;-90
2023/04/10 10:30:50;;;;;;;4.03;3.40;;;16.80;1.00;;;;;;5062894;28;20176;-88
2023/04/10 10:33:17;;;;;;;4.47;3.40;;;16.80;1.00;;;;;;5086148;28;20170;-88
2023/04/10 10:35:45;;;;;;;5.17;3.83;;;17.00;1.00;;;;;;5066012;28;20189;-86
2023/04/10 10:38:36;;;;;;;4.27;3.43;;;17.10;1.00;;;;;;5054120;28;20182;-87
2023/04/10 10:41:30;;;;;;;4.90;2.97;;;17.20;1.00;;;;;;5077328;28;20302;-87
2023/04/10 10:44:10;;;;;;;3.73;2.97;;;17.20;1.00;;;;;;5036351;28;20250;-88
2023/04/10 10:46:56;;;;;;;6.23;2.90;;;17.30;1.00;;;;;;5088964;28;20188;-88
2023/04/10 10:49:42;;;;;;;3.93;2.87;;;17.40;99.90;;;;;;5069131;28;20218;-89
2023/04/10 10:52:07;;;;;;;3.60;2.60;;;17.50;99.90;;;;;;5071613;28;20190;-86
2023/04/10 10:54:34;;;;;;;5.03;3.00;;;17.60;1.00;;;;;;5077211;28;20248;-87
2023/04/10 10:57:04;;;;;;;4.03;2.80;;;17.60;1.00;;;;;;5064341;28;20183;-88
2023/04/10 10:59:45;;;;;;;5.10;3.00;;;17.60;1.00;;;;;;5062968;28;20187;-86
2023/04/10 11:02:15;;;;;;;5.17;3.20;;;17.50;1.00;;;;;;5063266;28;20179;-88
2023/04/10 11:04:46;;;;;;;4.10;2.70;;;17.40;1.00;;;;;;5062911;28;20195;-87
2023/04/10 11:07:12;;;;;;;4.17;3.17;;;17.30;96.80;;;;;;5064892;28;20242;-88
2023/04/10 11:09:53;;;;;;;5.93;2.80;;;17.30;94.30;;;;;;5067487;28;20183;-88
2023/04/10 11:12:21;;;;;;;4.40;3.47;;;17.30;99.90;;;;;;5075834;28;20231;-88
2023/04/10 11:15:05;;;;;;;4.47;3.07;;;17.30;99.90;;;;;;5080054;28;20183;-88
2023/04/10 11:17:52;;;;;;;4.57;3.10;;;17.30;99.90;;;;;;5072341;28;20184;-85
2023/04/10 11:20:26;;;;;;;4.27;3.00;;;17.40;99.90;;;;;;5071132;28;20254;-88
2023/04/10 11:23:19;;;;;;;4.47;2.60;;;17.50;99.90;;;;;;5085888;28;20198;-89
2023/04/10 11:25:53;;;;;;;5.27;2.93;;;17.40;99.90;;;;;;5085458;28;20177;-86
2023/04/10 11:28:37;;;;;;;3.40;2.70;;;17.40;99.90;;;;;;5080869;28;20226;-87
2023/04/10 11:31:26;;;;;;;4.20;2.63;;;17.50;99.90;;;;;;5073620;28;20175;-87
2023/04/10 11:34:23;;;;;;;4.37;3.00;;;17.60;99.90;;;;;;5061792;28;20199;-87
2023/04/10 11:37:48;;;;;;;4.07;2.80;;;17.60;1.00;;;;;;5093435;28;20220;-88
2023/04/10 11:40:58;;;;;;;3.83;2.60;;;17.50;1.00;;;;;;5093420;28;20173;-87
2023/04/10 11:43:26;;;;;;;4.07;2.40;;;17.50;1.00;;;;;;5091616;28;20265;-87
2023/04/10 11:46:49;;;;;;;;;;;;;;;;;;;;;
2023/04/10 11:50:07;;;;;;;6.00;2.73;;;17.50;1.00;;;;;;5050603;28;20196;-88
2023/04/10 11:53:37;;;;;;;3.00;2.50;;;17.40;1.00;;;;;;5075772;28;20211;-87
2023/04/10 11:56:13;;;;;;;4.70;2.43;;;17.40;1.00;;;;;;5010087;28;20278;-87
2023/04/10 11:58:43;;;;;;;3.70;2.50;;;17.40;30.30;;;;;;5094346;28;20169;-87
2023/04/10 12:01:17;;;;;;;2.97;2.40;;;17.40;99.90;;;;;;5078713;28;20231;-86
2023/04/10 12:04:15;;;;;;;3.73;2.60;;;17.40;99.90;;;;;;5096089;28;20212;-84
2023/04/10 12:07:22;;;;;;;3.60;2.77;;;17.50;99.90;;;;;;5098964;28;20176;-86
2023/04/10 12:09:57;;;;;;;3.00;2.30;;;17.50;63.10;;;;;;5100880;28;20168;-86
2023/04/10 12:13:00;;;;;;;;;;;;;;;;;;;;;
2023/04/10 12:15:50;;;;;;;3.67;2.10;;;17.50;1.00;;;;;;5100810;28;20188;-90
2023/04/10 12:18:16;;;;;;;2.90;2.10;;;17.50;99.90;;;;;;5081985;28;20161;-90
2023/04/10 12:20:54;;;;;;;3.97;2.10;;;17.50;99.90;;;;;;5099577;28;20769;-87
2023/04/10 12:23:52;;;;;;;5.23;2.20;;;17.50;1.00;;;;;;5100055;28;20628;-87
2023/04/10 12:26:24;;;;;;;3.57;2.20;;;17.50;1.00;;;;;;5101038;28;20175;-87
2023/04/10 12:29:02;;;;;;;4.50;2.57;;;17.50;1.00;;;;;;5082633;28;20196;-87
2023/04/10 12:32:01;;;;;;;2.73;2.03;;;17.50;1.00;;;;;;5100340;28;20163;-92
2023/04/10 12:34:33;;;;;;;2.97;2.03;;;17.50;1.00;;;;;;5081173;28;20168;-93
2023/04/10 12:37:02;;;;;;;3.23;2.07;;;17.50;99.90;;;;;;5079756;28;20194;-87
2023/04/10 12:39:30;;;;;;;3.90;2.60;;;17.30;1.00;;;;;;5083373;28;20194;-89
2023/04/10 12:42:16;;;;;;;5.90;2.83;;;17.20;99.90;;;;;;5081443;28;20180;-87
2023/04/10 12:45:14;;;;;;;3.40;2.63;;;17.30;1.00;;;;;;5079018;28;20171;-86
2023/04/10 12:48:11;;;;;;;3.60;2.77;;;17.20;1.00;;;;;;5097621;28;20217;-87
2023/04/10 12:50:53;;;;;;;4.73;3.17;;;17.20;99.90;;;;;;5079193;28;20157;-85
2023/04/10 12:53:38;;;;;;;;;;;;;;;;;;;;;
2023/04/10 12:56:19;;;;;;;3.50;3.00;;;17.00;99.90;;;;;;5084312;28;20200;-87
2023/04/10 12:58:50;;;;;;;3.23;2.53;;;16.80;99.90;;;;;;5044024;28;20182;-88
2023/04/10 13:01:16;;;;;;;4.83;3.20;;;16.80;99.90;;;;;;5060491;28;20292;-88
2023/04/10 13:03:42;;;;;;;3.67;2.90;;;16.90;99.90;;;;;;5055923;28;20218;-87
2023/04/10 13:06:16;;;;;;;3.53;2.60;;;16.70;99.90;;;;;;5077321;28;20167;-86
2023/04/10 13:09:16;;;;;;;4.03;3.13;;;16.60;99.90;;;;;;5095610;28;20204;-87
2023/04/10 13:11:43;;;;;;;5.67;3.20;;;16.60;99.90;;;;;;5078380;28;20239;-87
2023/04/10 13:14:38;;;;;;;3.43;2.70;;;16.50;1.00;;;;;;5097781;28;20194;-87